Decoded Metar for LFOK (CHALONS in FRANCE) (IATA:N/A) | Meteo·Mobile Aviation Weather
aviador You're here:

LFOK Decoded Metar

CHALONS in FRANCE
Report Time2019-07-16 10:00:00
UTC Time2019-07-16 10:34:53
Flight Rules vfr VFR
Wind350° at 05 kt
W.Decomp.*RWY 28: 1.7 kt HW 4.7 kt RCW
Visibility9999 m
Phenomena:N/A
Clouds:N/A
Expected CloudBase > 3,600 ft AGL from Temp-Dew spread
CeilingNone
Temp20°C (ISA +6)
Dew Point11°C (56% RH)
AAT18.5°C
QNH1019 hPa
Density Alt1,217 ft
Elevation531 ft
Report Wrong Elevation
Raw Report
LFOK 161000Z AUTO 35005KT 320V020 CAVOK 20/11 Q1019 NOSIG=

Extra information for LFOK:More info

Metar Taf Metar & Taf Last 4 Metars F.Rules Stats Wind Profile Meteogram Temp Stats Airport Information Weather charts Add Link Nearby VenuesMetar ALERT Operation Metar Decoded Social comments